sensor_id;sensor_type;location;lat;lon;timestamp;P1;durP1;ratioP1;P2;durP2;ratioP2
34196;SDS011;36594;45.192;5.722;2022-07-29T00:00:29;1.10;;;1.10;;
34196;SDS011;36594;45.192;5.722;2022-07-29T00:03:19;6.42;;;1.40;;
34196;SDS011;36594;45.192;5.722;2022-07-29T00:06:07;1.22;;;1.12;;
34196;SDS011;36594;45.192;5.722;2022-07-29T00:08:56;1.50;;;1.15;;
34196;SDS011;36594;45.192;5.722;2022-07-29T00:11:44;1.60;;;1.20;;
34196;SDS011;36594;45.192;5.722;2022-07-29T00:14:33;1.10;;;1.10;;
34196;SDS011;36594;45.192;5.722;2022-07-29T00:17:22;1.40;;;1.30;;
34196;SDS011;36594;45.192;5.722;2022-07-29T00:20:12;1.35;;;1.30;;
34196;SDS011;36594;45.192;5.722;2022-07-29T00:23:02;1.10;;;1.10;;
34196;SDS011;36594;45.192;5.722;2022-07-29T00:25:50;1.32;;;1.27;;
34196;SDS011;36594;45.192;5.722;2022-07-29T00:28:38;1.00;;;1.00;;
34196;SDS011;36594;45.192;5.722;2022-07-29T00:31:26;1.07;;;1.07;;
34196;SDS011;36594;45.192;5.722;2022-07-29T00:34:14;1.57;;;1.30;;
34196;SDS011;36594;45.192;5.722;2022-07-29T00:37:21;1.00;;;1.00;;
34196;SDS011;36594;45.192;5.722;2022-07-29T00:40:09;1.55;;;1.17;;
34196;SDS011;36594;45.192;5.722;2022-07-29T00:42:59;1.40;;;1.40;;
34196;SDS011;36594;45.192;5.722;2022-07-29T00:45:48;1.30;;;1.20;;
34196;SDS011;36594;45.192;5.722;2022-07-29T00:48:37;1.37;;;1.30;;
34196;SDS011;36594;45.192;5.722;2022-07-29T00:51:26;1.30;;;1.30;;
34196;SDS011;36594;45.192;5.722;2022-07-29T00:54:15;1.30;;;1.30;;
34196;SDS011;36594;45.192;5.722;2022-07-29T00:57:05;1.37;;;1.30;;
34196;SDS011;36594;45.192;5.722;2022-07-29T00:59:54;1.37;;;1.37;;
34196;SDS011;36594;45.192;5.722;2022-07-29T01:02:43;1.52;;;1.20;;
34196;SDS011;36594;45.192;5.722;2022-07-29T01:05:35;1.12;;;1.12;;
34196;SDS011;36594;45.192;5.722;2022-07-29T01:08:27;1.20;;;1.20;;
34196;SDS011;36594;45.192;5.722;2022-07-29T01:11:15;1.10;;;1.10;;
34196;SDS011;36594;45.192;5.722;2022-07-29T01:14:05;2.60;;;1.20;;
34196;SDS011;36594;45.192;5.722;2022-07-29T01:16:59;1.30;;;1.30;;
34196;SDS011;36594;45.192;5.722;2022-07-29T01:23:11;1.30;;;1.30;;
34196;SDS011;36594;45.192;5.722;2022-07-29T01:26:18;1.40;;;1.30;;
34196;SDS011;36594;45.192;5.722;2022-07-29T01:32:14;1.67;;;1.57;;
34196;SDS011;36594;45.192;5.722;2022-07-29T01:35:04;1.35;;;1.25;;
34196;SDS011;36594;45.192;5.722;2022-07-29T01:38:13;1.20;;;1.20;;
34196;SDS011;36594;45.192;5.722;2022-07-29T01:41:11;1.80;;;1.27;;
34196;SDS011;36594;45.192;5.722;2022-07-29T01:44:10;2.02;;;1.20;;
34196;SDS011;36594;45.192;5.722;2022-07-29T01:46:57;1.42;;;1.32;;
34196;SDS011;36594;45.192;5.722;2022-07-29T01:49:49;1.20;;;1.20;;
34196;SDS011;36594;45.192;5.722;2022-07-29T01:52:52;1.50;;;1.40;;
34196;SDS011;36594;45.192;5.722;2022-07-29T01:55:38;1.30;;;1.20;;
34196;SDS011;36594;45.192;5.722;2022-07-29T01:58:28;1.50;;;1.40;;
34196;SDS011;36594;45.192;5.722;2022-07-29T02:01:18;1.40;;;1.30;;
34196;SDS011;36594;45.192;5.722;2022-07-29T02:04:09;1.53;;;1.43;;
34196;SDS011;36594;45.192;5.722;2022-07-29T02:07:09;1.33;;;1.30;;
34196;SDS011;36594;45.192;5.722;2022-07-29T02:09:54;1.20;;;1.20;;
34196;SDS011;36594;45.192;5.722;2022-07-29T02:12:44;1.40;;;1.40;;
34196;SDS011;36594;45.192;5.722;2022-07-29T02:15:36;1.27;;;1.20;;
34196;SDS011;36594;45.192;5.722;2022-07-29T02:18:26;1.10;;;1.10;;
34196;SDS011;36594;45.192;5.722;2022-07-29T02:21:19;1.30;;;1.30;;
34196;SDS011;36594;45.192;5.722;2022-07-29T02:24:09;1.30;;;1.30;;
34196;SDS011;36594;45.192;5.722;2022-07-29T02:26:59;1.37;;;1.27;;
34196;SDS011;36594;45.192;5.722;2022-07-29T02:29:50;1.15;;;1.15;;
34196;SDS011;36594;45.192;5.722;2022-07-29T02:32:40;1.30;;;1.30;;
34196;SDS011;36594;45.192;5.722;2022-07-29T02:35:30;1.45;;;1.35;;
34196;SDS011;36594;45.192;5.722;2022-07-29T02:38:19;1.30;;;1.30;;
34196;SDS011;36594;45.192;5.722;2022-07-29T02:41:31;1.05;;;1.05;;
34196;SDS011;36594;45.192;5.722;2022-07-29T02:44:36;1.30;;;1.20;;
34196;SDS011;36594;45.192;5.722;2022-07-29T02:47:34;1.32;;;1.20;;
34196;SDS011;36594;45.192;5.722;2022-07-29T02:50:26;1.20;;;1.20;;
34196;SDS011;36594;45.192;5.722;2022-07-29T02:53:22;1.52;;;1.30;;
34196;SDS011;36594;45.192;5.722;2022-07-29T02:56:09;1.17;;;1.17;;
34196;SDS011;36594;45.192;5.722;2022-07-29T02:59:03;1.20;;;1.10;;
34196;SDS011;36594;45.192;5.722;2022-07-29T03:01:53;1.50;;;1.40;;
34196;SDS011;36594;45.192;5.722;2022-07-29T03:04:43;1.27;;;1.17;;
34196;SDS011;36594;45.192;5.722;2022-07-29T03:07:35;3.40;;;1.25;;
34196;SDS011;36594;45.192;5.722;2022-07-29T03:10:25;1.32;;;1.32;;
34196;SDS011;36594;45.192;5.722;2022-07-29T03:13:14;1.25;;;1.25;;
34196;SDS011;36594;45.192;5.722;2022-07-29T03:16:04;1.20;;;1.10;;
34196;SDS011;36594;45.192;5.722;2022-07-29T03:18:54;1.17;;;1.17;;
34196;SDS011;36594;45.192;5.722;2022-07-29T03:21:43;1.40;;;1.02;;
34196;SDS011;36594;45.192;5.722;2022-07-29T03:24:34;1.00;;;1.00;;
34196;SDS011;36594;45.192;5.722;2022-07-29T03:27:22;1.35;;;1.17;;
34196;SDS011;36594;45.192;5.722;2022-07-29T03:30:11;1.35;;;1.10;;
34196;SDS011;36594;45.192;5.722;2022-07-29T03:33:00;2.20;;;2.00;;
34196;SDS011;36594;45.192;5.722;2022-07-29T03:35:48;1.15;;;1.15;;
34196;SDS011;36594;45.192;5.722;2022-07-29T03:38:36;1.30;;;1.20;;
34196;SDS011;36594;45.192;5.722;2022-07-29T03:41:27;1.30;;;1.20;;
34196;SDS011;36594;45.192;5.722;2022-07-29T03:44:17;1.30;;;1.30;;
34196;SDS011;36594;45.192;5.722;2022-07-29T03:47:08;1.10;;;1.10;;
34196;SDS011;36594;45.192;5.722;2022-07-29T03:50:18;1.20;;;1.20;;
34196;SDS011;36594;45.192;5.722;2022-07-29T03:52:55;1.25;;;1.15;;
34196;SDS011;36594;45.192;5.722;2022-07-29T03:55:45;1.10;;;1.10;;
34196;SDS011;36594;45.192;5.722;2022-07-29T03:58:36;1.30;;;1.30;;
34196;SDS011;36594;45.192;5.722;2022-07-29T04:01:26;1.37;;;1.27;;
34196;SDS011;36594;45.192;5.722;2022-07-29T04:04:16;1.30;;;1.30;;
34196;SDS011;36594;45.192;5.722;2022-07-29T04:07:05;1.40;;;1.30;;
34196;SDS011;36594;45.192;5.722;2022-07-29T04:09:54;1.17;;;1.13;;
34196;SDS011;36594;45.192;5.722;2022-07-29T04:12:42;1.40;;;1.30;;
34196;SDS011;36594;45.192;5.722;2022-07-29T04:15:31;1.32;;;1.32;;
34196;SDS011;36594;45.192;5.722;2022-07-29T04:18:20;1.25;;;1.15;;
34196;SDS011;36594;45.192;5.722;2022-07-29T04:21:08;1.35;;;1.20;;
34196;SDS011;36594;45.192;5.722;2022-07-29T04:23:59;1.30;;;1.20;;
34196;SDS011;36594;45.192;5.722;2022-07-29T04:26:48;2.60;;;1.30;;
34196;SDS011;36594;45.192;5.722;2022-07-29T04:29:36;1.17;;;1.17;;
34196;SDS011;36594;45.192;5.722;2022-07-29T04:32:25;1.20;;;1.20;;
34196;SDS011;36594;45.192;5.722;2022-07-29T04:35:13;1.17;;;1.17;;
34196;SDS011;36594;45.192;5.722;2022-07-29T04:38:02;1.32;;;1.22;;
34196;SDS011;36594;45.192;5.722;2022-07-29T04:40:52;1.20;;;1.20;;
34196;SDS011;36594;45.192;5.722;2022-07-29T04:43:41;1.50;;;1.25;;
34196;SDS011;36594;45.192;5.722;2022-07-29T04:46:35;2.50;;;1.23;;
34196;SDS011;36594;45.192;5.722;2022-07-29T04:49:24;1.20;;;1.20;;
34196;SDS011;36594;45.192;5.722;2022-07-29T04:52:13;1.60;;;1.50;;
34196;SDS011;36594;45.192;5.722;2022-07-29T04:55:01;1.80;;;1.70;;
34196;SDS011;36594;45.192;5.722;2022-07-29T04:57:52;2.30;;;2.10;;
34196;SDS011;36594;45.192;5.722;2022-07-29T05:00:41;2.00;;;1.90;;
34196;SDS011;36594;45.192;5.722;2022-07-29T05:03:29;1.37;;;1.37;;
34196;SDS011;36594;45.192;5.722;2022-07-29T05:06:17;1.82;;;1.72;;
34196;SDS011;36594;45.192;5.722;2022-07-29T05:09:06;1.90;;;1.70;;
34196;SDS011;36594;45.192;5.722;2022-07-29T05:11:54;2.00;;;1.60;;
34196;SDS011;36594;45.192;5.722;2022-07-29T05:14:42;1.70;;;1.60;;
34196;SDS011;36594;45.192;5.722;2022-07-29T05:17:31;1.98;;;1.70;;
34196;SDS011;36594;45.192;5.722;2022-07-29T05:20:23;2.83;;;1.60;;
34196;SDS011;36594;45.192;5.722;2022-07-29T05:23:13;1.50;;;1.40;;
34196;SDS011;36594;45.192;5.722;2022-07-29T05:26:02;1.40;;;1.30;;
34196;SDS011;36594;45.192;5.722;2022-07-29T05:28:50;1.30;;;1.20;;
34196;SDS011;36594;45.192;5.722;2022-07-29T05:31:40;1.90;;;1.23;;
34196;SDS011;36594;45.192;5.722;2022-07-29T05:34:29;1.27;;;1.25;;
34196;SDS011;36594;45.192;5.722;2022-07-29T05:37:19;2.10;;;1.10;;
34196;SDS011;36594;45.192;5.722;2022-07-29T05:40:08;1.15;;;1.15;;
34196;SDS011;36594;45.192;5.722;2022-07-29T05:42:57;1.93;;;1.23;;
34196;SDS011;36594;45.192;5.722;2022-07-29T05:45:45;1.30;;;1.20;;
34196;SDS011;36594;45.192;5.722;2022-07-29T05:48:34;1.50;;;1.40;;
34196;SDS011;36594;45.192;5.722;2022-07-29T05:51:23;1.40;;;1.30;;
34196;SDS011;36594;45.192;5.722;2022-07-29T05:54:11;1.22;;;1.22;;
34196;SDS011;36594;45.192;5.722;2022-07-29T05:56:59;2.00;;;1.12;;
34196;SDS011;36594;45.192;5.722;2022-07-29T05:59:48;1.10;;;1.07;;
34196;SDS011;36594;45.192;5.722;2022-07-29T06:02:37;1.60;;;1.20;;
34196;SDS011;36594;45.192;5.722;2022-07-29T06:05:26;1.10;;;1.10;;
34196;SDS011;36594;45.192;5.722;2022-07-29T06:08:15;1.42;;;1.10;;
34196;SDS011;36594;45.192;5.722;2022-07-29T06:11:04;1.02;;;1.00;;
34196;SDS011;36594;45.192;5.722;2022-07-29T06:13:53;1.35;;;1.20;;
34196;SDS011;36594;45.192;5.722;2022-07-29T06:16:42;1.17;;;1.17;;
34196;SDS011;36594;45.192;5.722;2022-07-29T06:19:30;1.45;;;1.35;;
34196;SDS011;36594;45.192;5.722;2022-07-29T06:22:23;1.50;;;1.30;;
34196;SDS011;36594;45.192;5.722;2022-07-29T06:25:12;1.47;;;1.22;;
34196;SDS011;36594;45.192;5.722;2022-07-29T06:28:00;1.30;;;1.30;;
34196;SDS011;36594;45.192;5.722;2022-07-29T06:30:48;1.70;;;1.60;;
34196;SDS011;36594;45.192;5.722;2022-07-29T06:33:40;2.92;;;1.40;;
34196;SDS011;36594;45.192;5.722;2022-07-29T06:36:28;1.30;;;1.20;;
34196;SDS011;36594;45.192;5.722;2022-07-29T06:39:16;2.15;;;1.50;;
34196;SDS011;36594;45.192;5.722;2022-07-29T06:42:04;1.40;;;1.30;;
34196;SDS011;36594;45.192;5.722;2022-07-29T06:44:55;1.50;;;1.40;;
34196;SDS011;36594;45.192;5.722;2022-07-29T06:47:44;1.57;;;1.47;;
34196;SDS011;36594;45.192;5.722;2022-07-29T06:50:32;1.40;;;1.30;;
34196;SDS011;36594;45.192;5.722;2022-07-29T06:53:21;1.60;;;1.40;;
34196;SDS011;36594;45.192;5.722;2022-07-29T06:56:10;2.00;;;1.50;;
34196;SDS011;36594;45.192;5.722;2022-07-29T06:59:00;2.00;;;1.40;;
34196;SDS011;36594;45.192;5.722;2022-07-29T07:01:48;1.57;;;1.47;;
34196;SDS011;36594;45.192;5.722;2022-07-29T07:04:36;1.37;;;1.30;;
34196;SDS011;36594;45.192;5.722;2022-07-29T07:07:25;1.72;;;1.57;;
34196;SDS011;36594;45.192;5.722;2022-07-29T07:10:13;1.98;;;1.40;;
34196;SDS011;36594;45.192;5.722;2022-07-29T07:13:02;1.57;;;1.47;;
34196;SDS011;36594;45.192;5.722;2022-07-29T07:15:57;2.60;;;1.50;;
34196;SDS011;36594;45.192;5.722;2022-07-29T07:18:45;1.72;;;1.62;;
34196;SDS011;36594;45.192;5.722;2022-07-29T07:21:34;1.67;;;1.60;;
34196;SDS011;36594;45.192;5.722;2022-07-29T07:24:22;1.70;;;1.60;;
34196;SDS011;36594;45.192;5.722;2022-07-29T07:27:18;2.42;;;1.67;;
34196;SDS011;36594;45.192;5.722;2022-07-29T07:30:07;1.65;;;1.55;;
34196;SDS011;36594;45.192;5.722;2022-07-29T07:32:56;1.82;;;1.65;;
34196;SDS011;36594;45.192;5.722;2022-07-29T07:35:44;2.20;;;1.70;;
34196;SDS011;36594;45.192;5.722;2022-07-29T07:38:32;1.70;;;1.60;;
34196;SDS011;36594;45.192;5.722;2022-07-29T07:41:22;1.77;;;1.67;;
34196;SDS011;36594;45.192;5.722;2022-07-29T07:44:10;1.42;;;1.42;;
34196;SDS011;36594;45.192;5.722;2022-07-29T07:46:58;1.87;;;1.67;;
34196;SDS011;36594;45.192;5.722;2022-07-29T07:49:46;1.98;;;1.62;;
34196;SDS011;36594;45.192;5.722;2022-07-29T07:52:45;1.60;;;1.60;;
34196;SDS011;36594;45.192;5.722;2022-07-29T07:55:40;1.50;;;1.40;;
34196;SDS011;36594;45.192;5.722;2022-07-29T07:58:29;1.60;;;1.50;;
34196;SDS011;36594;45.192;5.722;2022-07-29T08:01:17;1.57;;;1.47;;
34196;SDS011;36594;45.192;5.722;2022-07-29T08:04:12;1.75;;;1.65;;
34196;SDS011;36594;45.192;5.722;2022-07-29T08:07:07;1.62;;;1.52;;
34196;SDS011;36594;45.192;5.722;2022-07-29T08:09:56;2.52;;;1.62;;
34196;SDS011;36594;45.192;5.722;2022-07-29T08:12:44;2.15;;;1.70;;
34196;SDS011;36594;45.192;5.722;2022-07-29T08:15:33;1.80;;;1.70;;
34196;SDS011;36594;45.192;5.722;2022-07-29T08:18:27;2.05;;;1.80;;
34196;SDS011;36594;45.192;5.722;2022-07-29T08:21:18;3.47;;;1.80;;
34196;SDS011;36594;45.192;5.722;2022-07-29T08:24:07;1.93;;;1.53;;
34196;SDS011;36594;45.192;5.722;2022-07-29T08:27:14;2.20;;;1.85;;
34196;SDS011;36594;45.192;5.722;2022-07-29T08:30:05;1.52;;;1.52;;
34196;SDS011;36594;45.192;5.722;2022-07-29T08:32:54;1.55;;;1.55;;
34196;SDS011;36594;45.192;5.722;2022-07-29T08:35:43;2.00;;;1.80;;
34196;SDS011;36594;45.192;5.722;2022-07-29T08:38:32;1.60;;;1.50;;
34196;SDS011;36594;45.192;5.722;2022-07-29T08:41:24;1.40;;;1.40;;
34196;SDS011;36594;45.192;5.722;2022-07-29T08:44:13;2.25;;;1.37;;
34196;SDS011;36594;45.192;5.722;2022-07-29T08:47:03;1.82;;;1.72;;
34196;SDS011;36594;45.192;5.722;2022-07-29T08:49:52;2.00;;;1.80;;
34196;SDS011;36594;45.192;5.722;2022-07-29T08:52:41;2.35;;;1.85;;
34196;SDS011;36594;45.192;5.722;2022-07-29T08:55:30;2.45;;;1.80;;
34196;SDS011;36594;45.192;5.722;2022-07-29T08:58:19;1.70;;;1.60;;
34196;SDS011;36594;45.192;5.722;2022-07-29T09:01:10;2.30;;;2.10;;
34196;SDS011;36594;45.192;5.722;2022-07-29T09:04:04;1.75;;;1.70;;
34196;SDS011;36594;45.192;5.722;2022-07-29T09:06:56;2.17;;;1.95;;
34196;SDS011;36594;45.192;5.722;2022-07-29T09:09:48;2.10;;;1.90;;
34196;SDS011;36594;45.192;5.722;2022-07-29T09:12:36;2.20;;;1.90;;
34196;SDS011;36594;45.192;5.722;2022-07-29T09:15:26;1.80;;;1.70;;
34196;SDS011;36594;45.192;5.722;2022-07-29T09:21:23;1.98;;;1.80;;
34196;SDS011;36594;45.192;5.722;2022-07-29T09:24:51;1.90;;;1.80;;
34196;SDS011;36594;45.192;5.722;2022-07-29T09:27:26;2.12;;;1.70;;
34196;SDS011;36594;45.192;5.722;2022-07-29T09:30:15;1.97;;;1.70;;
34196;SDS011;36594;45.192;5.722;2022-07-29T09:33:04;3.40;;;3.10;;
34196;SDS011;36594;45.192;5.722;2022-07-29T09:36:07;2.98;;;2.10;;
34196;SDS011;36594;45.192;5.722;2022-07-29T09:39:01;2.27;;;2.17;;
34196;SDS011;36594;45.192;5.722;2022-07-29T09:41:50;2.70;;;2.30;;
34196;SDS011;36594;45.192;5.722;2022-07-29T09:44:45;2.92;;;1.80;;
34196;SDS011;36594;45.192;5.722;2022-07-29T09:47:42;2.00;;;1.80;;
34196;SDS011;36594;45.192;5.722;2022-07-29T09:50:38;1.80;;;1.70;;
34196;SDS011;36594;45.192;5.722;2022-07-29T09:53:32;2.22;;;1.85;;
34196;SDS011;36594;45.192;5.722;2022-07-29T09:56:39;2.10;;;1.80;;
34196;SDS011;36594;45.192;5.722;2022-07-29T09:59:28;3.40;;;1.85;;
34196;SDS011;36594;45.192;5.722;2022-07-29T10:02:16;2.12;;;1.75;;
34196;SDS011;36594;45.192;5.722;2022-07-29T10:05:09;2.55;;;1.45;;
34196;SDS011;36594;45.192;5.722;2022-07-29T10:08:09;1.60;;;1.50;;
34196;SDS011;36594;45.192;5.722;2022-07-29T10:11:15;1.75;;;1.60;;
34196;SDS011;36594;45.192;5.722;2022-07-29T10:14:05;1.65;;;1.50;;
34196;SDS011;36594;45.192;5.722;2022-07-29T10:16:54;1.60;;;1.50;;
34196;SDS011;36594;45.192;5.722;2022-07-29T10:19:57;1.65;;;1.55;;
34196;SDS011;36594;45.192;5.722;2022-07-29T10:22:46;1.60;;;1.50;;
34196;SDS011;36594;45.192;5.722;2022-07-29T10:25:36;1.75;;;1.40;;
34196;SDS011;36594;45.192;5.722;2022-07-29T10:28:25;1.50;;;1.40;;
34196;SDS011;36594;45.192;5.722;2022-07-29T10:31:28;2.60;;;1.70;;
34196;SDS011;36594;45.192;5.722;2022-07-29T10:35:15;1.72;;;1.50;;
34196;SDS011;36594;45.192;5.722;2022-07-29T10:44:12;3.17;;;1.77;;
34196;SDS011;36594;45.192;5.722;2022-07-29T10:47:03;2.33;;;2.10;;
34196;SDS011;36594;45.192;5.722;2022-07-29T10:49:55;2.33;;;2.22;;
34196;SDS011;36594;45.192;5.722;2022-07-29T10:52:55;4.15;;;2.10;;
34196;SDS011;36594;45.192;5.722;2022-07-29T10:55:45;2.90;;;2.70;;
34196;SDS011;36594;45.192;5.722;2022-07-29T10:58:37;5.22;;;2.75;;
34196;SDS011;36594;45.192;5.722;2022-07-29T11:01:29;2.33;;;2.20;;
34196;SDS011;36594;45.192;5.722;2022-07-29T11:14:14;2.45;;;2.22;;
34196;SDS011;36594;45.192;5.722;2022-07-29T11:17:04;2.02;;;1.92;;
34196;SDS011;36594;45.192;5.722;2022-07-29T11:23:36;2.17;;;1.98;;
34196;SDS011;36594;45.192;5.722;2022-07-29T11:26:25;2.90;;;1.92;;
34196;SDS011;36594;45.192;5.722;2022-07-29T11:32:09;2.27;;;1.98;;
34196;SDS011;36594;45.192;5.722;2022-07-29T11:35:13;2.35;;;1.95;;
34196;SDS011;36594;45.192;5.722;2022-07-29T11:44:16;1.90;;;1.80;;
34196;SDS011;36594;45.192;5.722;2022-07-29T11:47:04;1.80;;;1.70;;
34196;SDS011;36594;45.192;5.722;2022-07-29T11:49:56;3.10;;;1.77;;
34196;SDS011;36594;45.192;5.722;2022-07-29T11:52:46;2.27;;;1.85;;
34196;SDS011;36594;45.192;5.722;2022-07-29T11:55:35;2.30;;;2.10;;
34196;SDS011;36594;45.192;5.722;2022-07-29T11:58:25;2.40;;;1.80;;
34196;SDS011;36594;45.192;5.722;2022-07-29T12:01:16;1.82;;;1.72;;
34196;SDS011;36594;45.192;5.722;2022-07-29T12:04:06;2.08;;;1.87;;
34196;SDS011;36594;45.192;5.722;2022-07-29T12:06:55;2.67;;;1.73;;
34196;SDS011;36594;45.192;5.722;2022-07-29T12:09:49;1.80;;;1.70;;
34196;SDS011;36594;45.192;5.722;2022-07-29T12:12:38;1.90;;;1.80;;
34196;SDS011;36594;45.192;5.722;2022-07-29T12:15:26;1.80;;;1.70;;
34196;SDS011;36594;45.192;5.722;2022-07-29T12:18:16;2.00;;;1.90;;
34196;SDS011;36594;45.192;5.722;2022-07-29T12:21:06;2.20;;;2.00;;
34196;SDS011;36594;45.192;5.722;2022-07-29T12:23:55;1.77;;;1.67;;
34196;SDS011;36594;45.192;5.722;2022-07-29T12:26:51;1.80;;;1.70;;
34196;SDS011;36594;45.192;5.722;2022-07-29T12:29:41;1.90;;;1.80;;
34196;SDS011;36594;45.192;5.722;2022-07-29T12:32:36;1.80;;;1.70;;
34196;SDS011;36594;45.192;5.722;2022-07-29T12:35:32;1.80;;;1.70;;
34196;SDS011;36594;45.192;5.722;2022-07-29T12:38:21;1.82;;;1.67;;
34196;SDS011;36594;45.192;5.722;2022-07-29T12:41:10;1.90;;;1.80;;
34196;SDS011;36594;45.192;5.722;2022-07-29T12:44:03;1.80;;;1.70;;
34196;SDS011;36594;45.192;5.722;2022-07-29T12:47:02;1.70;;;1.60;;
34196;SDS011;36594;45.192;5.722;2022-07-29T12:49:51;1.90;;;1.80;;
34196;SDS011;36594;45.192;5.722;2022-07-29T12:52:42;1.70;;;1.60;;
34196;SDS011;36594;45.192;5.722;2022-07-29T12:55:38;2.20;;;1.50;;
34196;SDS011;36594;45.192;5.722;2022-07-29T13:01:23;1.70;;;1.67;;
34196;SDS011;36594;45.192;5.722;2022-07-29T13:04:26;1.80;;;1.70;;
34196;SDS011;36594;45.192;5.722;2022-07-29T13:07:16;1.57;;;1.52;;
34196;SDS011;36594;45.192;5.722;2022-07-29T13:10:12;2.10;;;1.85;;
34196;SDS011;36594;45.192;5.722;2022-07-29T13:13:09;2.45;;;1.72;;
34196;SDS011;36594;45.192;5.722;2022-07-29T13:16:06;1.90;;;1.70;;
34196;SDS011;36594;45.192;5.722;2022-07-29T13:19:14;2.00;;;1.90;;
34196;SDS011;36594;45.192;5.722;2022-07-29T13:21:59;2.00;;;1.80;;
34196;SDS011;36594;45.192;5.722;2022-07-29T13:24:50;1.95;;;1.77;;
34196;SDS011;36594;45.192;5.722;2022-07-29T13:27:41;2.10;;;2.00;;
34196;SDS011;36594;45.192;5.722;2022-07-29T13:30:31;1.80;;;1.70;;
34196;SDS011;36594;45.192;5.722;2022-07-29T13:33:20;1.90;;;1.80;;
34196;SDS011;36594;45.192;5.722;2022-07-29T13:36:08;1.85;;;1.75;;
34196;SDS011;36594;45.192;5.722;2022-07-29T13:38:56;2.35;;;1.82;;
34196;SDS011;36594;45.192;5.722;2022-07-29T13:41:45;2.00;;;1.90;;
34196;SDS011;36594;45.192;5.722;2022-07-29T13:44:34;1.75;;;1.65;;
34196;SDS011;36594;45.192;5.722;2022-07-29T13:47:24;1.98;;;1.87;;
34196;SDS011;36594;45.192;5.722;2022-07-29T13:50:12;1.60;;;1.50;;
34196;SDS011;36594;45.192;5.722;2022-07-29T13:53:01;2.10;;;2.00;;
34196;SDS011;36594;45.192;5.722;2022-07-29T13:55:49;2.02;;;1.90;;
34196;SDS011;36594;45.192;5.722;2022-07-29T13:58:38;2.20;;;1.60;;
34196;SDS011;36594;45.192;5.722;2022-07-29T14:01:34;1.80;;;1.70;;
34196;SDS011;36594;45.192;5.722;2022-07-29T14:04:23;1.83;;;1.77;;
34196;SDS011;36594;45.192;5.722;2022-07-29T14:07:12;1.90;;;1.80;;
34196;SDS011;36594;45.192;5.722;2022-07-29T14:10:00;1.85;;;1.75;;
34196;SDS011;36594;45.192;5.722;2022-07-29T14:12:49;2.02;;;1.70;;
34196;SDS011;36594;45.192;5.722;2022-07-29T14:15:37;1.90;;;1.80;;
34196;SDS011;36594;45.192;5.722;2022-07-29T14:18:25;1.72;;;1.62;;
34196;SDS011;36594;45.192;5.722;2022-07-29T14:21:14;2.10;;;1.60;;
34196;SDS011;36594;45.192;5.722;2022-07-29T14:24:02;1.97;;;1.80;;
34196;SDS011;36594;45.192;5.722;2022-07-29T14:26:51;1.62;;;1.62;;
34196;SDS011;36594;45.192;5.722;2022-07-29T14:29:40;1.65;;;1.60;;
34196;SDS011;36594;45.192;5.722;2022-07-29T14:32:28;1.90;;;1.80;;
34196;SDS011;36594;45.192;5.722;2022-07-29T14:35:17;1.70;;;1.60;;
34196;SDS011;36594;45.192;5.722;2022-07-29T14:38:05;2.02;;;1.87;;
34196;SDS011;36594;45.192;5.722;2022-07-29T14:40:53;2.25;;;1.90;;
34196;SDS011;36594;45.192;5.722;2022-07-29T14:43:42;1.65;;;1.55;;
34196;SDS011;36594;45.192;5.722;2022-07-29T14:46:31;2.80;;;1.75;;
34196;SDS011;36594;45.192;5.722;2022-07-29T14:49:20;3.00;;;1.90;;
34196;SDS011;36594;45.192;5.722;2022-07-29T14:52:08;1.70;;;1.60;;
34196;SDS011;36594;45.192;5.722;2022-07-29T14:54:56;1.87;;;1.70;;
34196;SDS011;36594;45.192;5.722;2022-07-29T14:57:46;1.90;;;1.80;;
34196;SDS011;36594;45.192;5.722;2022-07-29T15:00:36;1.67;;;1.57;;
34196;SDS011;36594;45.192;5.722;2022-07-29T15:03:35;1.92;;;1.72;;
34196;SDS011;36594;45.192;5.722;2022-07-29T15:06:24;2.80;;;1.60;;
34196;SDS011;36594;45.192;5.722;2022-07-29T15:09:12;1.70;;;1.60;;
34196;SDS011;36594;45.192;5.722;2022-07-29T15:12:01;1.70;;;1.60;;
34196;SDS011;36594;45.192;5.722;2022-07-29T15:14:50;1.80;;;1.70;;
34196;SDS011;36594;45.192;5.722;2022-07-29T15:17:39;1.60;;;1.50;;
34196;SDS011;36594;45.192;5.722;2022-07-29T15:20:33;1.87;;;1.70;;
34196;SDS011;36594;45.192;5.722;2022-07-29T15:23:21;1.57;;;1.47;;
34196;SDS011;36594;45.192;5.722;2022-07-29T15:26:09;2.47;;;1.62;;
34196;SDS011;36594;45.192;5.722;2022-07-29T15:28:57;3.17;;;1.70;;
34196;SDS011;36594;45.192;5.722;2022-07-29T15:31:47;1.70;;;1.60;;
34196;SDS011;36594;45.192;5.722;2022-07-29T15:34:35;2.80;;;1.70;;
34196;SDS011;36594;45.192;5.722;2022-07-29T15:37:25;1.82;;;1.72;;
34196;SDS011;36594;45.192;5.722;2022-07-29T15:40:14;2.37;;;1.45;;
34196;SDS011;36594;45.192;5.722;2022-07-29T15:43:05;1.55;;;1.45;;
34196;SDS011;36594;45.192;5.722;2022-07-29T15:45:54;1.62;;;1.52;;
34196;SDS011;36594;45.192;5.722;2022-07-29T15:49:01;1.75;;;1.65;;
34196;SDS011;36594;45.192;5.722;2022-07-29T15:51:51;1.30;;;1.30;;
34196;SDS011;36594;45.192;5.722;2022-07-29T15:54:39;1.77;;;1.67;;
34196;SDS011;36594;45.192;5.722;2022-07-29T15:57:28;1.90;;;1.47;;
34196;SDS011;36594;45.192;5.722;2022-07-29T16:00:16;1.82;;;1.37;;
34196;SDS011;36594;45.192;5.722;2022-07-29T16:03:05;1.55;;;1.50;;
34196;SDS011;36594;45.192;5.722;2022-07-29T16:05:54;1.57;;;1.47;;
34196;SDS011;36594;45.192;5.722;2022-07-29T16:08:42;1.52;;;1.42;;
34196;SDS011;36594;45.192;5.722;2022-07-29T16:11:31;1.50;;;1.40;;
34196;SDS011;36594;45.192;5.722;2022-07-29T16:14:19;1.62;;;1.52;;
34196;SDS011;36594;45.192;5.722;2022-07-29T16:17:07;1.60;;;1.50;;
34196;SDS011;36594;45.192;5.722;2022-07-29T16:19:56;1.30;;;1.30;;
34196;SDS011;36594;45.192;5.722;2022-07-29T16:22:44;1.27;;;1.27;;
34196;SDS011;36594;45.192;5.722;2022-07-29T16:25:32;1.55;;;1.45;;
34196;SDS011;36594;45.192;5.722;2022-07-29T16:28:21;1.47;;;1.40;;
34196;SDS011;36594;45.192;5.722;2022-07-29T16:31:16;1.70;;;1.60;;
34196;SDS011;36594;45.192;5.722;2022-07-29T16:34:06;1.50;;;1.40;;
34196;SDS011;36594;45.192;5.722;2022-07-29T16:36:54;1.30;;;1.30;;
34196;SDS011;36594;45.192;5.722;2022-07-29T16:39:43;1.47;;;1.37;;
34196;SDS011;36594;45.192;5.722;2022-07-29T16:42:31;1.90;;;1.40;;
34196;SDS011;36594;45.192;5.722;2022-07-29T16:45:22;1.35;;;1.35;;
34196;SDS011;36594;45.192;5.722;2022-07-29T16:48:10;1.20;;;1.20;;
34196;SDS011;36594;45.192;5.722;2022-07-29T16:51:02;1.40;;;1.40;;
34196;SDS011;36594;45.192;5.722;2022-07-29T16:53:53;1.57;;;1.50;;
34196;SDS011;36594;45.192;5.722;2022-07-29T16:56:41;1.37;;;1.37;;
34196;SDS011;36594;45.192;5.722;2022-07-29T16:59:30;1.52;;;1.45;;
34196;SDS011;36594;45.192;5.722;2022-07-29T17:02:19;2.08;;;1.57;;
34196;SDS011;36594;45.192;5.722;2022-07-29T17:05:08;1.30;;;1.30;;
34196;SDS011;36594;45.192;5.722;2022-07-29T17:07:57;1.60;;;1.50;;
34196;SDS011;36594;45.192;5.722;2022-07-29T17:10:45;1.30;;;1.30;;
34196;SDS011;36594;45.192;5.722;2022-07-29T17:13:34;1.10;;;1.10;;
34196;SDS011;36594;45.192;5.722;2022-07-29T17:16:28;1.47;;;1.37;;
34196;SDS011;36594;45.192;5.722;2022-07-29T17:19:13;2.12;;;1.27;;
34196;SDS011;36594;45.192;5.722;2022-07-29T17:22:02;1.37;;;1.37;;
34196;SDS011;36594;45.192;5.722;2022-07-29T17:24:53;1.40;;;1.30;;
34196;SDS011;36594;45.192;5.722;2022-07-29T17:27:41;1.80;;;1.40;;
34196;SDS011;36594;45.192;5.722;2022-07-29T17:30:29;2.53;;;1.37;;
34196;SDS011;36594;45.192;5.722;2022-07-29T17:33:17;1.40;;;1.30;;
34196;SDS011;36594;45.192;5.722;2022-07-29T17:36:06;1.20;;;1.20;;
34196;SDS011;36594;45.192;5.722;2022-07-29T17:39:09;1.40;;;1.40;;
34196;SDS011;36594;45.192;5.722;2022-07-29T17:41:58;1.20;;;1.20;;
34196;SDS011;36594;45.192;5.722;2022-07-29T17:44:46;1.35;;;1.20;;
34196;SDS011;36594;45.192;5.722;2022-07-29T17:47:35;1.27;;;1.20;;
34196;SDS011;36594;45.192;5.722;2022-07-29T17:50:24;1.20;;;1.20;;